Time;durP1;ratioP1;P1;durP2;ratioP2;P2;SDS_P1;SDS_P2;PMS_P1;PMS_P2;Temp;Humidity;BMP_temperature;BMP_pressure;BME280_temperature;BME280_humidity;BME280_pressure;Samples;Min_cycle;Max_cycle;Signal;HPM_P1;HPM_P2
2022/05/18 00:00:13;;;;;;;7.70;4.47;;;;;;;12.11;70.56;101124.16;2900012;81;21033;-89
2022/05/18 00:04:16;;;;;;;7.17;5.65;;;;;;;12.01;71.12;101132.50;2903950;80;21489;-88
2022/05/18 00:08:18;;;;;;;8.85;6.05;;;;;;;11.89;71.73;101134.70;2898003;81;21570;-88
2022/05/18 00:12:19;;;;;;;5.92;5.35;;;;;;;11.80;72.07;101135.77;2922801;80;21002;-88
2022/05/18 00:16:23;;;;;;;10.08;6.62;;;;;;;11.75;72.07;101146.39;2902325;81;21565;-89
2022/05/18 00:20:24;;;;;;;6.58;5.55;;;;;;;11.66;72.29;101152.73;2911948;81;21026;-89
2022/05/18 00:24:26;;;;;;;5.47;4.35;;;;;;;11.57;72.42;101153.42;2903305;81;21309;-88
2022/05/18 00:28:27;;;;;;;5.62;4.12;;;;;;;11.45;72.43;101151.17;2907423;80;21023;-89
2022/05/18 00:32:28;;;;;;;6.28;5.45;;;;;;;11.37;72.87;101154.38;2898928;80;21024;-89
2022/05/18 00:36:29;;;;;;;5.12;4.58;;;;;;;11.34;73.07;101159.06;2921639;80;20974;-88
2022/05/18 00:40:33;;;;;;;5.87;4.45;;;;;;;11.18;72.79;101170.80;2909960;79;20974;-88
2022/05/18 00:44:34;;;;;;;6.67;5.35;;;;;;;11.04;72.46;101178.42;2927028;80;21058;-88
2022/05/18 00:48:37;;;;;;;4.53;3.50;;;;;;;10.92;72.48;101183.29;2916166;80;20987;-89
2022/05/18 00:52:44;;;;;;;6.10;4.97;;;;;;;10.84;73.06;101193.97;2927313;80;21050;-90
2022/05/18 00:57:08;;;;;;;6.42;4.80;;;;;;;10.82;73.23;101199.05;2911176;80;21037;-89
2022/05/18 01:01:10;;;;;;;5.28;4.00;;;;;;;10.75;73.41;101198.60;2897873;80;21701;-88
2022/05/18 01:05:17;;;;;;;8.53;3.33;;;;;;;10.70;73.45;101204.70;2933083;79;21835;-87
2022/05/18 01:09:35;;;;;;;4.55;3.12;;;;;;;10.67;72.41;101204.45;2898249;80;21086;-88
2022/05/18 01:13:37;;;;;;;4.45;3.35;;;;;;;10.71;71.29;101207.76;2898627;81;21035;-88
2022/05/18 01:17:41;;;;;;;3.25;2.95;;;;;;;10.75;70.18;101208.38;2928668;81;21012;-88
2022/05/18 01:21:48;;;;;;;7.45;2.80;;;;;;;10.76;68.43;101210.95;2870273;81;21037;-88
2022/05/18 01:26:21;;;;;;;5.95;3.08;;;;;;;10.78;66.78;101214.82;2904540;81;21034;-88
2022/05/18 01:30:22;;;;;;;7.65;2.52;;;;;;;10.79;65.87;101217.39;2913138;81;20999;-88
2022/05/18 01:34:28;;;;;;;4.87;2.15;;;;;;;10.80;64.85;101228.88;2898838;81;21019;-88
2022/05/18 01:38:31;;;;;;;2.95;1.82;;;;;;;10.83;64.73;101227.36;2957879;80;21006;-88
2022/05/18 01:42:40;;;;;;;5.70;2.95;;;;;;;10.75;64.79;101229.20;2882676;81;21039;-88
2022/05/18 01:46:42;;;;;;;4.08;2.52;;;;;;;10.58;65.16;101225.00;2908225;80;21070;-86
2022/05/18 01:50:44;;;;;;;5.97;3.60;;;;;;;10.31;66.51;101235.17;2903888;81;21003;-88
2022/05/18 01:54:47;;;;;;;6.15;3.55;;;;;;;10.11;67.67;101233.80;2910911;80;21089;-88
2022/05/18 01:58:48;;;;;;;3.98;2.95;;;;;;;9.96;68.75;101234.31;2902701;81;21038;-88
2022/05/18 02:02:50;;;;;;;5.28;4.30;;;;;;;9.86;69.16;101244.22;2911079;81;21038;-88
2022/05/18 02:06:51;;;;;;;4.65;4.12;;;;;;;9.81;69.79;101242.31;2916249;81;20999;-89
2022/05/18 02:10:52;;;;;;;5.10;3.77;;;;;;;9.68;70.16;101240.91;2898819;81;21038;-89
2022/05/18 02:14:53;;;;;;;4.33;3.92;;;;;;;9.54;70.36;101255.06;2902576;81;20991;-88
2022/05/18 02:18:54;;;;;;;4.42;3.58;;;;;;;9.46;70.60;101257.34;2911716;80;21011;-88
2022/05/18 02:22:56;;;;;;;5.15;3.37;;;;;;;9.33;70.48;101257.71;2905908;81;21066;-89
2022/05/18 02:26:57;;;;;;;6.03;3.20;;;;;;;9.15;70.50;101263.19;2951061;79;21005;-88
2022/05/18 02:30:58;;;;;;;3.25;2.22;;;;;;;9.06;70.85;101265.92;2903677;81;21042;-88
2022/05/18 02:35:00;;;;;;;5.22;2.72;;;;;;;9.10;70.64;101266.60;2947981;79;21049;-88
2022/05/18 02:39:01;;;;;;;5.33;2.67;;;;;;;9.10;70.66;101270.09;2907272;81;21061;-88
2022/05/18 02:43:02;;;;;;;3.27;2.98;;;;;;;9.12;70.56;101269.52;2900815;80;21044;-89
2022/05/18 02:47:04;;;;;;;6.20;2.87;;;;;;;9.14;70.46;101268.13;2904267;79;21015;-89
2022/05/18 02:51:07;;;;;;;3.58;3.27;;;;;;;9.14;70.47;101272.10;2919053;80;21029;-89
2022/05/18 02:59:29;;;;;;;6.15;2.98;;;;;;;9.05;68.38;101276.16;2907379;80;22418;-87
2022/05/18 03:03:30;;;;;;;5.58;3.35;;;;;;;8.99;68.52;101273.39;2952011;79;21608;-87
2022/05/18 03:07:31;;;;;;;8.83;4.65;;;;;;;8.92;69.29;101282.67;2951104;78;21505;-88
2022/05/18 03:11:33;;;;;;;6.47;2.80;;;;;;;8.62;69.36;101281.34;2922087;80;21039;-87
2022/05/18 03:15:34;;;;;;;6.45;3.62;;;;;;;8.46;70.14;101295.44;2943887;80;21558;-87
2022/05/18 03:19:35;;;;;;;7.00;5.55;;;;;;;8.48;70.94;101296.69;2944005;80;21909;-89
2022/05/18 03:23:37;;;;;;;5.20;2.50;;;;;;;8.54;70.99;101302.51;2925249;79;21565;-88
2022/05/18 03:27:43;;;;;;;3.87;3.37;;;;;;;8.61;70.83;101301.69;2892574;81;21033;-89
2022/05/18 03:31:46;;;;;;;9.18;3.02;;;;;;;8.64;70.75;101296.20;2924641;80;21018;-89
2022/05/18 03:35:48;;;;;;;8.93;2.62;;;;;;;8.70;70.43;101295.88;2915237;80;21537;-89
2022/05/18 03:39:49;;;;;;;8.45;3.20;;;;;;;8.80;70.22;101306.80;2878953;81;21510;-88
2022/05/18 03:43:50;;;;;;;1.80;1.40;;;;;;;8.88;69.25;101309.47;2910945;80;21110;-89
2022/05/18 03:47:51;;;;;;;3.47;1.95;;;;;;;8.90;68.69;101318.19;2889326;80;21117;-88
2022/05/18 03:51:53;;;;;;;8.13;2.95;;;;;;;8.90;68.54;101320.39;2900369;81;21831;-88
2022/05/18 03:55:55;;;;;;;11.65;3.08;;;;;;;8.96;69.25;101329.31;2914528;81;21454;-88
2022/05/18 03:59:56;;;;;;;3.65;2.10;;;;;;;9.11;70.09;101337.33;2908679;81;21066;-89
2022/05/18 04:03:58;;;;;;;5.35;2.47;;;;;;;9.25;69.26;101336.50;2913829;80;21110;-87
2022/05/18 04:08:00;;;;;;;6.62;2.75;;;;;;;9.41;69.19;101344.39;2928696;80;20982;-88
2022/05/18 04:12:01;;;;;;;3.60;2.83;;;;;;;9.84;70.11;101347.11;2895599;80;20966;-89
2022/05/18 04:16:03;;;;;;;3.83;2.25;;;;;;;11.05;71.11;101353.69;2914210;80;20983;-87
2022/05/18 04:20:05;;;;;;;4.47;2.50;;;;;;;12.60;66.93;101349.61;2901656;82;21487;-87
2022/05/18 04:24:07;;;;;;;5.10;1.92;;;;;;;13.91;61.88;101342.44;2906141;81;20995;-88
2022/05/18 04:28:13;;;;;;;3.35;1.50;;;;;;;14.98;58.79;101344.53;2866329;80;21145;-87
2022/05/18 04:32:13;;;;;;;2.37;2.00;;;;;;;15.77;54.82;101355.28;2865236;81;21062;-87
2022/05/18 04:36:14;;;;;;;2.25;1.37;;;;;;;16.44;53.20;101360.69;2866410;82;21606;-86
2022/05/18 04:40:15;;;;;;;7.08;2.02;;;;;;;16.94;51.29;101353.89;2897397;80;21400;-87
2022/05/18 04:44:17;;;;;;;6.33;1.92;;;;;;;17.44;51.39;101355.21;2867310;81;21027;-87
2022/05/18 04:48:20;;;;;;;4.15;2.27;;;;;;;18.08;50.54;101357.65;2872587;80;21117;-87
2022/05/18 04:52:22;;;;;;;3.40;2.58;;;;;;;18.52;49.92;101365.03;2899628;80;21129;-87
2022/05/18 04:56:24;;;;;;;7.05;2.60;;;;;;;18.80;48.89;101366.83;2897914;82;20999;-87
2022/05/18 05:00:25;;;;;;;2.35;1.82;;;;;;;19.02;48.63;101367.39;2890637;81;21735;-87
2022/05/18 05:04:27;;;;;;;6.03;2.42;;;;;;;19.10;48.13;101379.61;2863648;80;21014;-85
2022/05/18 05:08:28;;;;;;;7.20;3.12;;;;;;;19.34;47.59;101378.11;2866641;81;21010;-87
2022/05/18 05:12:30;;;;;;;3.77;2.22;;;;;;;19.42;47.05;101387.59;2885590;81;20999;-87
2022/05/18 05:16:33;;;;;;;3.87;2.37;;;;;;;19.46;46.29;101382.74;2898682;82;21015;-87
2022/05/18 05:20:34;;;;;;;3.52;1.92;;;;;;;19.26;46.70;101384.28;2878664;80;21027;-87
2022/05/18 05:24:35;;;;;;;3.17;2.00;;;;;;;19.20;47.11;101384.40;2895884;80;20983;-87
2022/05/18 05:28:36;;;;;;;4.58;3.83;;;;;;;19.12;46.54;101391.92;2857793;81;21089;-87
2022/05/18 05:32:38;;;;;;;23.95;15.58;;;;;;;18.97;45.92;101387.55;2904240;81;21034;-87
2022/05/18 05:36:39;;;;;;;11.03;8.48;;;;;;;19.15;47.93;101384.03;2914068;80;21015;-87
2022/05/18 05:40:40;;;;;;;7.97;4.45;;;;;;;19.13;47.22;101385.52;2904869;81;21526;-86
2022/05/18 05:44:41;;;;;;;3.25;2.52;;;;;;;18.78;47.99;101387.70;2836213;81;21034;-86
2022/05/18 05:48:45;;;;;;;8.13;2.92;;;;;;;17.99;47.79;101393.00;2906119;81;20992;-87
2022/05/18 05:52:47;;;;;;;3.33;2.25;;;;;;;17.53;48.76;101396.88;2902387;80;21677;-87
2022/05/18 05:56:48;;;;;;;2.08;1.60;;;;;;;17.25;48.48;101392.73;2903070;80;21006;-85
2022/05/18 06:00:49;;;;;;;13.70;3.45;;;;;;;17.32;49.43;101404.28;2902675;81;20999;-86
2022/05/18 06:04:50;;;;;;;5.05;3.83;;;;;;;17.47;48.86;101405.51;2903794;80;21075;-87
2022/05/18 06:08:51;;;;;;;4.37;2.52;;;;;;;17.42;48.84;101402.41;2876294;81;21050;-85
2022/05/18 06:12:52;;;;;;;4.35;2.70;;;;;;;17.40;49.09;101404.39;2915467;80;21039;-87
2022/05/18 06:16:54;;;;;;;3.30;1.90;;;;;;;17.56;49.07;101406.00;2915623;80;21573;-86
2022/05/18 06:20:56;;;;;;;6.45;2.35;;;;;;;17.79;48.37;101412.91;2904706;80;21005;-87
2022/05/18 06:24:58;;;;;;;3.08;2.10;;;;;;;17.73;48.48;101418.36;2910758;81;21034;-87
2022/05/18 06:28:59;;;;;;;23.40;13.50;;;;;;;17.67;47.80;101416.23;2905453;81;21058;-86
2022/05/18 06:33:00;;;;;;;13.72;11.05;;;;;;;17.50;49.47;101418.70;2912277;81;21013;-87
2022/05/18 06:37:03;;;;;;;8.05;5.87;;;;;;;17.61;48.22;101423.06;2909679;81;21014;-87
2022/05/18 06:41:22;;;;;;;12.45;5.37;;;;;;;17.56;48.96;101426.18;2903626;81;21003;-86
2022/05/18 06:45:23;;;;;;;4.47;2.55;;;;;;;17.46;48.85;101431.22;2910887;81;21154;-87
2022/05/18 06:49:26;;;;;;;5.20;2.52;;;;;;;17.67;49.03;101433.72;2836664;82;21058;-87
2022/05/18 06:53:27;;;;;;;4.17;1.95;;;;;;;17.93;47.45;101442.53;2946835;80;20980;-86
2022/05/18 06:57:29;;;;;;;2.87;1.80;;;;;;;18.01;48.70;101442.64;2945610;80;20982;-86
2022/05/18 07:01:30;;;;;;;2.02;1.45;;;;;;;18.39;48.27;101445.38;2900043;81;21050;-87
2022/05/18 07:05:32;;;;;;;2.83;2.30;;;;;;;18.65;45.78;101445.50;2904183;81;21081;-87
2022/05/18 07:09:33;;;;;;;9.23;2.08;;;;;;;18.75;45.20;101445.44;2901151;79;21055;-87
2022/05/18 07:13:35;;;;;;;10.70;2.70;;;;;;;18.69;46.81;101445.56;2874233;81;21656;-87
2022/05/18 07:17:36;;;;;;;3.80;1.90;;;;;;;18.54;46.93;101447.06;2896237;81;20999;-86
2022/05/18 07:21:38;;;;;;;8.28;3.30;;;;;;;18.13;47.91;101454.97;2928951;80;21027;-87
2022/05/18 07:25:39;;;;;;;3.02;1.98;;;;;;;18.09;48.55;101453.57;2874429;79;21015;-86
2022/05/18 07:29:40;;;;;;;3.52;2.33;;;;;;;18.09;48.14;101450.87;2923680;80;21006;-87
2022/05/18 07:33:41;;;;;;;7.00;2.27;;;;;;;18.37;47.66;101453.59;2923109;80;21023;-86
2022/05/18 07:37:43;;;;;;;2.22;1.98;;;;;;;18.18;47.65;101455.88;2922631;80;21074;-87
2022/05/18 07:41:44;;;;;;;6.35;2.70;;;;;;;18.33;47.97;101450.86;2916628;80;20994;-87
2022/05/18 07:45:48;;;;;;;2.90;1.75;;;;;;;18.56;46.28;101452.63;2918674;80;21054;-86
2022/05/18 07:49:50;;;;;;;3.90;2.10;;;;;;;18.82;46.44;101461.86;2925397;80;28168;-86
2022/05/18 07:53:51;;;;;;;8.00;2.58;;;;;;;18.93;44.85;101455.40;2897323;81;21018;-86
2022/05/18 07:57:53;;;;;;;4.15;2.83;;;;;;;18.87;45.54;101451.97;2924740;80;21161;-86
2022/05/18 08:01:54;;;;;;;4.55;2.52;;;;;;;19.19;46.24;101455.53;2918843;80;21010;-86
2022/05/18 08:05:56;;;;;;;4.08;2.22;;;;;;;19.40;47.41;101452.52;2923715;80;21057;-86
2022/05/18 08:18:33;;;;;;;4.53;2.35;;;;;;;19.70;46.08;101456.30;2843927;83;21052;-87
2022/05/18 08:22:34;;;;;;;2.35;1.47;;;;;;;19.69;44.40;101464.88;2811984;83;21047;-86
2022/05/18 08:26:35;;;;;;;2.42;1.65;;;;;;;19.73;43.98;101457.32;2839336;83;21031;-86
2022/05/18 08:30:39;;;;;;;3.87;1.70;;;;;;;19.70;44.59;101458.47;2845956;83;21045;-87
2022/05/18 08:34:39;;;;;;;3.80;2.33;;;;;;;19.79;44.20;101462.59;2845507;83;21000;-87
2022/05/18 08:38:41;;;;;;;2.30;1.65;;;;;;;19.89;44.55;101460.63;2845273;83;21052;-85
2022/05/18 08:42:42;;;;;;;3.65;1.87;;;;;;;19.81;42.63;101459.23;2842847;82;21151;-87
2022/05/18 08:47:16;;;;;;;1.98;1.25;;;;;;;19.83;42.45;101458.05;2821155;83;21465;-87
2022/05/18 08:51:41;;;;;;;2.80;1.62;;;;;;;19.96;41.14;101459.04;2918367;80;21082;-87
2022/05/18 08:56:01;;;;;;;1.32;1.22;;;;;;;20.03;40.85;101460.57;2913181;80;21022;-86
2022/05/18 09:00:28;;;;;;;1.30;1.12;;;;;;;19.98;39.27;101462.42;2909670;81;21498;-87
2022/05/18 09:04:44;;;;;;;3.47;1.95;;;;;;;19.98;39.15;101462.42;2927396;80;21034;-86
2022/05/18 09:10:12;;;;;;;2.50;1.42;;;;;;;20.07;41.01;101466.51;2900117;81;21011;-87
2022/05/18 09:12:57;;;;;;;5.22;1.30;;;;;;;20.06;40.73;101458.92;2940904;80;21080;-87
2022/05/18 09:17:28;;;;;;;2.75;0.88;;;;;;;20.12;42.43;101461.47;2951340;80;21100;-87
2022/05/18 09:21:50;;;;;;;2.33;0.85;;;;;;;20.17;37.33;101455.59;2945398;80;21092;-87
2022/05/18 09:26:18;;;;;;;1.98;1.30;;;;;;;20.30;41.47;101461.89;2892495;81;21024;-87
2022/05/18 09:30:27;;;;;;;1.55;0.90;;;;;;;20.29;39.90;101463.77;2851445;82;21050;-87
2022/05/18 09:34:43;;;;;;;5.97;1.90;;;;;;;20.42;39.58;101460.61;2878277;81;21021;-86
2022/05/18 09:39:04;;;;;;;4.10;1.42;;;;;;;20.37;40.12;101459.73;2908212;81;21518;-87
2022/05/18 09:43:18;;;;;;;2.58;0.78;;;;;;;20.56;40.34;101453.73;2914933;81;21511;-87
2022/05/18 09:47:23;;;;;;;2.75;1.10;;;;;;;20.82;37.83;101455.03;2895458;81;21035;-86
2022/05/18 09:51:25;;;;;;;4.95;1.37;;;;;;;20.85;35.89;101462.47;2905495;81;21930;-87
2022/05/18 09:55:27;;;;;;;3.15;1.22;;;;;;;21.02;37.62;101461.50;2932480;80;21088;-87
2022/05/18 09:59:35;;;;;;;2.12;0.98;;;;;;;21.11;36.24;101463.71;2907574;81;21033;-87
2022/05/18 10:08:35;;;;;;;2.47;1.47;;;;;;;21.10;35.45;101452.55;2901168;81;21015;-86
2022/05/18 10:12:43;;;;;;;3.08;0.88;;;;;;;21.10;36.32;101460.14;2929778;80;21091;-87
2022/05/18 10:16:48;;;;;;;4.60;1.70;;;;;;;21.06;35.76;101450.68;2911586;81;21073;-85
2022/05/18 10:21:13;;;;;;;28.07;4.72;;;;;;;21.15;36.98;101448.00;2905689;81;21046;-87
2022/05/18 10:25:34;;;;;;;5.12;2.17;;;;;;;21.15;34.03;101441.23;2913137;80;21061;-87
2022/05/18 10:29:36;;;;;;;4.22;1.55;;;;;;;21.25;33.96;101441.41;2924016;80;21026;-87
2022/05/18 10:33:41;;;;;;;3.62;2.25;;;;;;;21.29;33.71;101421.61;2872304;80;21046;-87
2022/05/18 10:37:42;;;;;;;1.50;1.27;;;;;;;21.35;36.47;101420.09;2920783;80;21042;-87
2022/05/18 10:41:45;;;;;;;4.03;1.62;;;;;;;21.50;36.30;101415.69;2918248;80;21018;-86
2022/05/18 10:45:58;;;;;;;2.60;0.95;;;;;;;21.57;36.90;101416.34;2901485;80;21066;-87
2022/05/18 10:50:39;;;;;;;5.05;1.22;;;;;;;21.54;36.00;101416.20;2912081;80;20998;-87
2022/05/18 10:55:00;;;;;;;3.80;1.37;;;;;;;21.63;35.03;101411.62;2916135;80;20992;-86
2022/05/18 10:59:16;;;;;;;2.60;0.75;;;;;;;21.61;35.10;101417.20;2888953;80;21027;-87
2022/05/18 11:03:36;;;;;;;;;;;;;;;21.43;33.46;101405.22;2926094;80;21066;-87
2022/05/18 11:07:38;;;;;;;5.08;1.52;;;;;;;21.43;34.83;101408.42;2924970;78;20123;-86
2022/05/18 11:11:57;;;;;;;1.87;0.90;;;;;;;21.57;34.62;101396.05;2924516;80;21018;-87
2022/05/18 11:16:39;;;;;;;3.00;1.07;;;;;;;21.65;36.05;101399.62;2916977;80;21025;-86
2022/05/18 11:20:55;;;;;;;3.85;1.50;;;;;;;21.77;36.76;101391.97;2927968;80;21018;-87
2022/05/18 11:25:49;;;;;;;0.95;0.65;;;;;;;21.99;34.87;101384.12;2919308;79;21035;-87
2022/05/18 11:30:09;;;;;;;1.00;0.60;;;;;;;22.08;35.67;101379.02;2959944;79;20968;-86
2022/05/18 11:34:30;;;;;;;0.78;0.72;;;;;;;22.10;35.05;101368.84;2958209;80;21515;-86
2022/05/18 11:38:55;;;;;;;7.47;1.57;;;;;;;22.20;33.47;101358.30;2953238;79;21035;-87
2022/05/18 11:43:35;;;;;;;1.05;0.40;;;;;;;22.31;36.03;101363.33;2948409;79;21046;-87
2022/05/18 11:47:54;;;;;;;0.75;0.28;;;;;;;22.50;32.66;101354.45;2823942;82;21048;-86
2022/05/18 11:52:06;;;;;;;0.55;0.40;;;;;;;22.56;30.88;101356.97;2831985;83;21193;-86
2022/05/18 11:56:40;;;;;;;2.75;0.70;;;;;;;22.54;30.93;101340.86;2843629;82;21091;-86
2022/05/18 12:01:00;;;;;;;2.30;0.88;;;;;;;22.63;31.22;101344.36;2794215;83;21189;-87
2022/05/18 12:05:13;;;;;;;1.02;0.88;;;;;;;22.84;33.29;101341.00;2834159;82;21035;-87
2022/05/18 12:09:54;;;;;;;1.12;0.40;;;;;;;22.76;29.15;101332.91;2741601;85;21080;-87
2022/05/18 12:14:21;;;;;;;1.47;0.78;;;;;;;22.79;30.63;101340.68;2753279;86;22011;-87
2022/05/18 12:18:44;;;;;;;3.20;0.62;;;;;;;22.96;30.14;101342.23;2696021;86;21034;-86
2022/05/18 12:22:53;;;;;;;0.68;0.68;;;;;;;22.87;27.73;101335.70;2725740;86;21086;-85
2022/05/18 12:26:56;;;;;;;1.17;0.50;;;;;;;22.79;26.91;101328.47;2772955;84;21574;-86
2022/05/18 12:30:58;;;;;;;2.12;0.47;;;;;;;22.72;26.57;101329.73;2765357;86;21146;-86
2022/05/18 12:35:35;;;;;;;2.40;0.60;;;;;;;22.74;27.49;101334.47;2778256;85;21054;-87
2022/05/18 12:39:46;;;;;;;;;;;;;;;22.74;27.55;101329.54;2776339;85;21056;-87
2022/05/18 12:44:04;;;;;;;5.17;1.30;;;;;;;22.65;26.53;101324.19;2778498;81;20107;-87
2022/05/18 12:48:31;;;;;;;2.15;0.57;;;;;;;22.70;28.88;101318.23;2903907;81;21035;-88
2022/05/18 12:52:38;;;;;;;3.42;0.95;;;;;;;22.84;29.29;101319.30;2896298;81;21002;-88
2022/05/18 12:56:53;;;;;;;1.27;0.53;;;;;;;22.95;30.63;101314.78;2926976;79;21039;-87
2022/05/18 13:01:19;;;;;;;3.63;0.90;;;;;;;23.01;30.93;101314.57;2909694;81;21063;-87
2022/05/18 13:05:31;;;;;;;0.50;0.30;;;;;;;23.23;30.58;101311.98;2897090;80;21022;-88
2022/05/18 13:09:37;;;;;;;6.25;0.80;;;;;;;23.28;29.34;101307.41;2921106;81;21508;-87
2022/05/18 13:14:00;;;;;;;1.07;0.40;;;;;;;23.23;29.46;101310.12;2949358;80;21050;-88
2022/05/18 13:18:18;;;;;;;1.45;0.57;;;;;;;23.29;29.44;101318.59;2917459;79;21092;-89
2022/05/18 13:22:24;;;;;;;1.87;0.47;;;;;;;23.25;29.34;101307.22;2918164;79;21078;-85
2022/05/18 13:26:35;;;;;;;7.22;1.55;;;;;;;23.28;29.62;101297.91;2941165;79;21003;-85
2022/05/18 13:30:53;;;;;;;2.10;0.60;;;;;;;23.27;30.03;101304.36;2928812;80;21035;-85
2022/05/18 13:35:14;;;;;;;1.47;0.55;;;;;;;23.44;29.33;101301.80;2933450;79;21004;-86
2022/05/18 13:39:33;;;;;;;1.30;0.20;;;;;;;23.46;27.98;101296.17;2947647;80;21086;-86
2022/05/18 13:43:40;;;;;;;1.02;0.68;;;;;;;23.57;29.47;101287.56;2896964;79;21358;-86
2022/05/18 13:47:46;;;;;;;2.27;0.55;;;;;;;23.70;29.92;101286.07;2906390;80;21074;-86
2022/05/18 13:51:58;;;;;;;0.47;0.35;;;;;;;23.88;31.68;101287.87;2896292;80;21025;-86
2022/05/18 13:56:17;;;;;;;8.95;2.40;;;;;;;23.90;29.29;101286.31;2929757;79;21141;-85
2022/05/18 14:00:38;;;;;;;1.02;0.30;;;;;;;23.80;27.91;101287.47;2931180;80;20991;-87
2022/05/18 14:04:42;;;;;;;2.70;0.62;;;;;;;23.89;27.06;101277.83;2901994;79;21046;-86
2022/05/18 14:08:49;;;;;;;1.57;0.42;;;;;;;23.89;28.52;101267.83;2932441;79;20983;-86
2022/05/18 14:13:03;;;;;;;1.20;0.57;;;;;;;23.79;28.39;101277.63;2930707;79;21029;-85
2022/05/18 14:17:10;;;;;;;3.50;0.62;;;;;;;23.64;28.42;101267.30;2865225;81;21041;-85
2022/05/18 14:21:14;;;;;;;1.10;0.55;;;;;;;23.59;27.36;101262.95;2885805;80;21023;-86
2022/05/18 14:25:16;;;;;;;3.72;0.68;;;;;;;23.60;28.58;101253.77;2936457;79;21050;-86
2022/05/18 14:29:32;;;;;;;3.10;0.55;;;;;;;23.45;27.35;101253.27;2939661;80;21494;-87
2022/05/18 14:33:56;;;;;;;7.33;0.75;;;;;;;23.51;26.62;101255.22;2912788;81;21010;-86
2022/05/18 14:38:02;;;;;;;0.68;0.20;;;;;;;23.65;27.52;101252.15;2913910;80;21020;-86
2022/05/18 14:42:05;;;;;;;1.40;0.47;;;;;;;23.79;26.72;101246.39;2916437;80;21055;-84
2022/05/18 14:46:23;;;;;;;1.57;0.72;;;;;;;23.83;26.71;101235.97;2912200;80;21000;-84
2022/05/18 14:50:38;;;;;;;0.53;0.40;;;;;;;23.89;27.46;101238.44;2904054;80;21086;-86
2022/05/18 14:54:49;;;;;;;2.55;0.30;;;;;;;24.05;27.97;101230.09;2902929;81;21029;-86
2022/05/18 14:58:55;;;;;;;3.33;0.42;;;;;;;24.05;26.97;101231.45;2900604;81;21069;-86
2022/05/18 15:02:58;;;;;;;1.30;0.40;;;;;;;24.03;26.66;101224.02;2897460;81;20963;-86
2022/05/18 15:07:08;;;;;;;3.02;0.50;;;;;;;23.97;27.17;101227.45;2894549;81;21050;-86
2022/05/18 15:11:20;;;;;;;1.15;0.50;;;;;;;23.78;27.56;101220.27;2895612;82;21058;-89
2022/05/18 15:15:27;;;;;;;1.02;0.20;;;;;;;23.75;27.36;101217.91;2865123;80;21053;-89
2022/05/18 15:19:35;;;;;;;2.17;0.40;;;;;;;23.66;27.06;101226.67;2926280;80;20979;-88
2022/05/18 15:24:06;;;;;;;1.75;0.55;;;;;;;23.58;26.16;101225.94;2925484;80;20991;-88
2022/05/18 15:28:22;;;;;;;1.42;0.68;;;;;;;23.60;27.42;101221.19;2892979;80;21022;-88
2022/05/18 15:32:37;;;;;;;0.78;0.72;;;;;;;23.45;25.84;101211.68;2928732;80;21031;-88
2022/05/18 15:36:38;;;;;;;1.92;0.80;;;;;;;23.43;25.83;101213.25;2876414;80;21077;-88
2022/05/18 15:40:40;;;;;;;2.30;0.80;;;;;;;23.41;26.89;101206.31;2870511;80;21304;-88
2022/05/18 15:44:41;;;;;;;0.72;0.30;;;;;;;23.37;26.62;101210.77;2905424;80;20998;-89
2022/05/18 15:48:44;;;;;;;0.57;0.33;;;;;;;23.42;27.46;101212.92;2914800;80;21009;-89
2022/05/18 15:52:49;;;;;;;5.42;0.82;;;;;;;23.45;28.25;101211.18;2930125;81;21036;-89
2022/05/18 15:56:53;;;;;;;0.53;0.43;;;;;;;23.35;28.08;101207.40;2913564;80;21025;-89
2022/05/18 16:00:54;;;;;;;3.47;0.75;;;;;;;23.32;27.99;101206.92;2914124;80;21049;-89
2022/05/18 16:04:56;;;;;;;0.68;0.25;;;;;;;23.22;27.30;101202.61;2922541;81;21043;-89
2022/05/18 16:08:57;;;;;;;1.10;0.47;;;;;;;23.08;27.20;101210.22;2862222;81;21062;-88
2022/05/18 16:12:59;;;;;;;5.40;0.50;;;;;;;23.03;26.80;101202.63;2903963;81;21077;-87
2022/05/18 16:17:00;;;;;;;0.98;0.23;;;;;;;23.05;28.61;101207.88;2911258;80;21042;-85
2022/05/18 16:21:08;;;;;;;3.58;0.40;;;;;;;23.00;28.50;101207.61;2900703;81;21022;-89
2022/05/18 16:25:18;;;;;;;1.35;0.35;;;;;;;23.00;28.11;101211.15;2911214;81;21688;-88
2022/05/18 16:29:30;;;;;;;1.62;0.75;;;;;;;22.83;29.90;101208.59;2904817;81;21046;-89
2022/05/18 16:33:32;;;;;;;14.15;2.10;;;;;;;22.69;28.84;101208.05;2893110;80;21621;-88
2022/05/18 16:37:33;;;;;;;0.20;0.20;;;;;;;22.58;29.50;101202.56;2901730;81;21080;-89
2022/05/18 16:41:38;;;;;;;0.68;0.40;;;;;;;22.50;28.79;101197.22;2899345;81;21114;-90
2022/05/18 16:45:40;;;;;;;1.40;0.60;;;;;;;22.39;29.05;101199.82;2904331;80;21006;-88
2022/05/18 16:49:42;;;;;;;1.02;0.57;;;;;;;22.30;29.01;101199.05;2900347;82;20986;-88
2022/05/18 16:53:43;;;;;;;0.65;0.57;;;;;;;22.13;30.84;101197.47;2906049;80;20978;-87
2022/05/18 16:57:47;;;;;;;2.77;0.80;;;;;;;22.02;31.18;101194.67;2874391;80;20975;-89
2022/05/18 17:01:49;;;;;;;7.55;1.52;;;;;;;21.90;31.08;101192.36;2907383;80;20996;-87
2022/05/18 17:06:07;;;;;;;0.72;0.60;;;;;;;21.74;30.85;101197.91;2911813;80;21051;-88
2022/05/18 17:10:06;;;;;;;4.73;0.60;;;;;;;21.51;32.59;101195.43;2915961;81;21008;-87
2022/05/18 17:14:16;;;;;;;2.80;0.47;;;;;;;21.29;34.05;101201.61;2875927;80;21018;-87
2022/05/18 17:18:17;;;;;;;6.20;1.52;;;;;;;21.17;34.51;101201.97;2926619;81;21027;-87
2022/05/18 17:22:19;;;;;;;2.52;1.20;;;;;;;21.08;34.29;101201.67;2873644;81;20994;-89
2022/05/18 17:26:25;;;;;;;19.98;3.67;;;;;;;20.94;35.14;101200.53;2876579;80;20983;-88
2022/05/18 17:30:27;;;;;;;8.33;1.62;;;;;;;20.71;35.91;101196.30;2899187;80;21008;-91
2022/05/18 17:34:29;;;;;;;11.68;1.42;;;;;;;20.51;36.30;101198.00;2902891;81;21021;-93
2022/05/18 17:38:30;;;;;;;10.23;2.90;;;;;;;20.32;36.67;101194.62;2938514;80;20995;-90
2022/05/18 17:42:31;;;;;;;4.62;0.70;;;;;;;20.19;36.97;101195.12;2900106;80;21606;-89
2022/05/18 17:46:35;;;;;;;15.40;3.12;;;;;;;20.11;37.25;101193.75;2914450;80;21071;-88
2022/05/18 17:50:38;;;;;;;0.68;0.35;;;;;;;19.92;37.36;101193.56;2894821;80;21518;-88
2022/05/18 17:54:39;;;;;;;35.92;4.78;;;;;;;19.75;37.94;101193.97;2904971;80;21070;-87
2022/05/18 17:58:42;;;;;;;4.03;1.00;;;;;;;19.62;38.27;101205.23;2901292;80;21411;-88
2022/05/18 18:02:45;;;;;;;4.00;0.50;;;;;;;19.48;39.20;101195.91;2857993;80;21010;-88
2022/05/18 18:06:47;;;;;;;2.20;0.72;;;;;;;19.36;39.09;101196.70;2927047;79;20986;-89
2022/05/18 18:10:49;;;;;;;8.28;1.75;;;;;;;19.32;39.72;101200.74;2945461;79;21070;-89
2022/05/18 18:14:50;;;;;;;6.70;1.72;;;;;;;19.18;39.57;101208.41;2955606;79;21009;-87
2022/05/18 18:18:52;;;;;;;9.90;2.60;;;;;;;19.07;40.21;101204.66;2949291;79;21504;-89
2022/05/18 18:22:53;;;;;;;8.95;2.15;;;;;;;18.96;40.52;101203.02;2930427;80;21018;-89
2022/05/18 18:26:55;;;;;;;8.05;1.92;;;;;;;18.82;41.08;101195.02;2851053;80;21467;-89
2022/05/18 18:30:57;;;;;;;3.50;2.00;;;;;;;18.67;41.23;101198.31;2918568;81;21042;-88
2022/05/18 18:35:01;;;;;;;8.60;1.87;;;;;;;18.50;41.84;101194.62;2916260;80;21070;-86
2022/05/18 18:39:04;;;;;;;2.42;0.95;;;;;;;18.33;41.95;101194.99;2890159;81;21037;-85
2022/05/18 18:43:07;;;;;;;5.28;1.25;;;;;;;18.07;43.19;101197.09;2920312;79;20971;-86
2022/05/18 18:47:08;;;;;;;2.55;1.17;;;;;;;17.84;43.13;101191.28;2895637;81;21010;-89
2022/05/18 18:55:31;;;;;;;2.40;0.93;;;;;;;17.53;44.64;101201.87;2875062;81;21004;-90
2022/05/18 18:59:33;;;;;;;2.40;1.37;;;;;;;17.28;44.72;101200.19;2954588;79;20982;-88
2022/05/18 19:03:34;;;;;;;2.35;1.35;;;;;;;17.08;45.21;101206.63;2945467;79;21021;-89
2022/05/18 19:07:36;;;;;;;37.50;7.12;;;;;;;16.95;45.99;101213.16;2882059;79;21018;-89
2022/05/18 19:11:41;;;;;;;22.27;3.98;;;;;;;16.66;46.90;101211.35;2913956;80;21441;-89
2022/05/18 19:15:43;;;;;;;19.48;4.40;;;;;;;16.29;47.95;101213.41;2903329;81;21073;-89
2022/05/18 19:19:44;;;;;;;11.65;3.80;;;;;;;15.97;47.82;101214.53;2846248;81;21086;-88
2022/05/18 19:23:45;;;;;;;5.58;2.25;;;;;;;15.82;47.61;101224.75;2899970;80;21023;-87
2022/05/18 19:27:48;;;;;;;5.08;1.25;;;;;;;15.67;48.94;101218.92;2862619;80;21030;-90
2022/05/18 19:31:50;;;;;;;4.20;2.98;;;;;;;15.36;49.83;101220.31;2896874;81;21032;-89